sensor_id;sensor_type;location;lat;lon;timestamp;temperature;humidity
15926;DHT22;8062;53.882;10.642;2023-04-24T00:01:02;13.10;99.90
15926;DHT22;8062;53.882;10.642;2023-04-24T00:02:22;13.10;99.90
15926;DHT22;8062;53.882;10.642;2023-04-24T00:03:43;13.10;99.90
15926;DHT22;8062;53.882;10.642;2023-04-24T00:05:04;13.10;99.90
15926;DHT22;8062;53.882;10.642;2023-04-24T00:06:26;13.20;99.90
15926;DHT22;8062;53.882;10.642;2023-04-24T00:07:52;13.20;99.90
15926;DHT22;8062;53.882;10.642;2023-04-24T00:09:11;13.20;99.90
15926;DHT22;8062;53.882;10.642;2023-04-24T00:10:31;13.20;99.90
15926;DHT22;8062;53.882;10.642;2023-04-24T00:11:51;13.30;99.90
15926;DHT22;8062;53.882;10.642;2023-04-24T00:13:10;13.20;99.90
15926;DHT22;8062;53.882;10.642;2023-04-24T00:14:33;13.20;99.90
15926;DHT22;8062;53.882;10.642;2023-04-24T00:15:55;13.30;99.90
15926;DHT22;8062;53.882;10.642;2023-04-24T00:17:14;13.30;99.90
15926;DHT22;8062;53.882;10.642;2023-04-24T00:18:34;13.30;99.90
15926;DHT22;8062;53.882;10.642;2023-04-24T00:19:53;13.20;99.90
15926;DHT22;8062;53.882;10.642;2023-04-24T00:21:18;13.20;99.90
15926;DHT22;8062;53.882;10.642;2023-04-24T00:22:37;13.10;99.90
15926;DHT22;8062;53.882;10.642;2023-04-24T00:23:57;13.10;99.90
15926;DHT22;8062;53.882;10.642;2023-04-24T00:25:16;13.00;99.90
15926;DHT22;8062;53.882;10.642;2023-04-24T00:26:36;12.80;99.90
15926;DHT22;8062;53.882;10.642;2023-04-24T00:27:55;12.70;99.90
15926;DHT22;8062;53.882;10.642;2023-04-24T00:29:15;12.60;99.90
15926;DHT22;8062;53.882;10.642;2023-04-24T00:30:34;12.60;99.90
15926;DHT22;8062;53.882;10.642;2023-04-24T00:31:54;12.60;99.90
15926;DHT22;8062;53.882;10.642;2023-04-24T00:33:13;12.50;99.90
15926;DHT22;8062;53.882;10.642;2023-04-24T00:34:34;12.40;99.90
15926;DHT22;8062;53.882;10.642;2023-04-24T00:35:53;12.30;99.90
15926;DHT22;8062;53.882;10.642;2023-04-24T00:37:13;12.30;99.90
15926;DHT22;8062;53.882;10.642;2023-04-24T00:38:33;12.20;99.90
15926;DHT22;8062;53.882;10.642;2023-04-24T00:39:52;12.10;99.90
15926;DHT22;8062;53.882;10.642;2023-04-24T00:41:12;12.20;99.90
15926;DHT22;8062;53.882;10.642;2023-04-24T00:42:33;12.10;99.90
15926;DHT22;8062;53.882;10.642;2023-04-24T00:43:53;12.10;99.90
15926;DHT22;8062;53.882;10.642;2023-04-24T00:45:13;12.10;99.90
15926;DHT22;8062;53.882;10.642;2023-04-24T00:46:32;12.10;99.90
15926;DHT22;8062;53.882;10.642;2023-04-24T00:47:52;12.10;99.90
15926;DHT22;8062;53.882;10.642;2023-04-24T00:49:12;12.10;99.90
15926;DHT22;8062;53.882;10.642;2023-04-24T00:50:32;12.10;99.90
15926;DHT22;8062;53.882;10.642;2023-04-24T00:51:52;12.00;99.90
15926;DHT22;8062;53.882;10.642;2023-04-24T00:53:13;12.00;99.90
15926;DHT22;8062;53.882;10.642;2023-04-24T00:54:32;12.00;99.90
15926;DHT22;8062;53.882;10.642;2023-04-24T00:55:52;12.10;99.90
15926;DHT22;8062;53.882;10.642;2023-04-24T00:57:13;12.10;99.90
15926;DHT22;8062;53.882;10.642;2023-04-24T00:58:34;12.00;99.90
15926;DHT22;8062;53.882;10.642;2023-04-24T00:59:53;12.00;99.90
15926;DHT22;8062;53.882;10.642;2023-04-24T01:01:13;12.00;99.90
15926;DHT22;8062;53.882;10.642;2023-04-24T01:02:33;12.10;99.90
15926;DHT22;8062;53.882;10.642;2023-04-24T01:03:53;12.10;99.90
15926;DHT22;8062;53.882;10.642;2023-04-24T01:05:14;12.10;99.90
15926;DHT22;8062;53.882;10.642;2023-04-24T01:06:34;12.00;99.90
15926;DHT22;8062;53.882;10.642;2023-04-24T01:07:54;12.00;99.90
15926;DHT22;8062;53.882;10.642;2023-04-24T01:09:14;12.00;99.90
15926;DHT22;8062;53.882;10.642;2023-04-24T01:10:34;11.90;99.90
15926;DHT22;8062;53.882;10.642;2023-04-24T01:11:55;11.90;99.90
15926;DHT22;8062;53.882;10.642;2023-04-24T01:13:15;11.80;99.90
15926;DHT22;8062;53.882;10.642;2023-04-24T01:14:37;11.80;99.90
15926;DHT22;8062;53.882;10.642;2023-04-24T01:15:57;11.80;99.90
15926;DHT22;8062;53.882;10.642;2023-04-24T01:17:17;11.80;99.90
15926;DHT22;8062;53.882;10.642;2023-04-24T01:18:37;11.70;99.90
15926;DHT22;8062;53.882;10.642;2023-04-24T01:19:57;11.70;99.90
15926;DHT22;8062;53.882;10.642;2023-04-24T01:21:18;11.60;99.90
15926;DHT22;8062;53.882;10.642;2023-04-24T01:22:37;11.60;99.90
15926;DHT22;8062;53.882;10.642;2023-04-24T01:23:56;11.50;99.90
15926;DHT22;8062;53.882;10.642;2023-04-24T01:25:16;11.40;99.90
15926;DHT22;8062;53.882;10.642;2023-04-24T01:26:36;11.50;99.90
15926;DHT22;8062;53.882;10.642;2023-04-24T01:27:55;11.40;99.90
15926;DHT22;8062;53.882;10.642;2023-04-24T01:29:15;11.30;99.90
15926;DHT22;8062;53.882;10.642;2023-04-24T01:30:36;11.30;99.90
15926;DHT22;8062;53.882;10.642;2023-04-24T01:31:56;11.30;99.90
15926;DHT22;8062;53.882;10.642;2023-04-24T01:33:17;11.20;99.90
15926;DHT22;8062;53.882;10.642;2023-04-24T01:34:37;11.20;99.90
15926;DHT22;8062;53.882;10.642;2023-04-24T01:35:57;11.20;99.90
15926;DHT22;8062;53.882;10.642;2023-04-24T01:37:17;11.20;99.90
15926;DHT22;8062;53.882;10.642;2023-04-24T01:38:37;11.10;99.90
15926;DHT22;8062;53.882;10.642;2023-04-24T01:39:56;11.10;99.90
15926;DHT22;8062;53.882;10.642;2023-04-24T01:41:16;11.20;99.90
15926;DHT22;8062;53.882;10.642;2023-04-24T01:42:38;11.10;99.90
15926;DHT22;8062;53.882;10.642;2023-04-24T01:43:58;11.10;99.90
15926;DHT22;8062;53.882;10.642;2023-04-24T01:45:17;11.10;99.90
15926;DHT22;8062;53.882;10.642;2023-04-24T01:46:37;11.10;99.90
15926;DHT22;8062;53.882;10.642;2023-04-24T01:47:57;11.10;99.90
15926;DHT22;8062;53.882;10.642;2023-04-24T01:49:17;11.10;99.90
15926;DHT22;8062;53.882;10.642;2023-04-24T01:50:38;11.10;99.90
15926;DHT22;8062;53.882;10.642;2023-04-24T01:51:57;11.10;99.90
15926;DHT22;8062;53.882;10.642;2023-04-24T01:53:17;11.10;99.90
15926;DHT22;8062;53.882;10.642;2023-04-24T01:54:37;11.10;99.90
15926;DHT22;8062;53.882;10.642;2023-04-24T01:55:57;11.00;99.90
15926;DHT22;8062;53.882;10.642;2023-04-24T01:57:18;11.10;99.90
15926;DHT22;8062;53.882;10.642;2023-04-24T01:58:37;11.10;99.90
15926;DHT22;8062;53.882;10.642;2023-04-24T01:59:57;11.10;99.90
15926;DHT22;8062;53.882;10.642;2023-04-24T02:01:20;11.10;99.90
15926;DHT22;8062;53.882;10.642;2023-04-24T02:02:41;11.10;99.90
15926;DHT22;8062;53.882;10.642;2023-04-24T02:04:01;11.10;99.90
15926;DHT22;8062;53.882;10.642;2023-04-24T02:05:21;11.10;99.90
15926;DHT22;8062;53.882;10.642;2023-04-24T02:06:40;11.10;99.90
15926;DHT22;8062;53.882;10.642;2023-04-24T02:08:00;11.10;99.90
15926;DHT22;8062;53.882;10.642;2023-04-24T02:09:20;11.10;99.90
15926;DHT22;8062;53.882;10.642;2023-04-24T02:10:39;11.20;99.90
15926;DHT22;8062;53.882;10.642;2023-04-24T02:11:59;11.10;99.90
15926;DHT22;8062;53.882;10.642;2023-04-24T02:13:19;11.10;99.90
15926;DHT22;8062;53.882;10.642;2023-04-24T02:14:39;11.10;99.90
15926;DHT22;8062;53.882;10.642;2023-04-24T02:15:59;11.10;99.90
15926;DHT22;8062;53.882;10.642;2023-04-24T02:17:18;11.10;99.90
15926;DHT22;8062;53.882;10.642;2023-04-24T02:18:38;11.10;99.90
15926;DHT22;8062;53.882;10.642;2023-04-24T02:19:58;11.10;99.90
15926;DHT22;8062;53.882;10.642;2023-04-24T02:21:17;11.10;99.90
15926;DHT22;8062;53.882;10.642;2023-04-24T02:22:37;11.10;99.90
15926;DHT22;8062;53.882;10.642;2023-04-24T02:23:57;11.10;99.90
15926;DHT22;8062;53.882;10.642;2023-04-24T02:25:17;11.00;99.90
15926;DHT22;8062;53.882;10.642;2023-04-24T02:26:37;11.00;99.90
15926;DHT22;8062;53.882;10.642;2023-04-24T02:27:56;11.00;99.90
15926;DHT22;8062;53.882;10.642;2023-04-24T02:29:16;11.00;99.90
15926;DHT22;8062;53.882;10.642;2023-04-24T02:30:36;11.00;99.90
15926;DHT22;8062;53.882;10.642;2023-04-24T02:31:55;11.00;99.90
15926;DHT22;8062;53.882;10.642;2023-04-24T02:33:15;11.00;99.90
15926;DHT22;8062;53.882;10.642;2023-04-24T02:34:35;11.00;99.90
15926;DHT22;8062;53.882;10.642;2023-04-24T02:35:54;11.00;99.90
15926;DHT22;8062;53.882;10.642;2023-04-24T02:37:15;11.00;99.90
15926;DHT22;8062;53.882;10.642;2023-04-24T02:38:36;10.90;99.90
15926;DHT22;8062;53.882;10.642;2023-04-24T02:39:55;10.90;99.90
15926;DHT22;8062;53.882;10.642;2023-04-24T02:41:15;10.80;99.90
15926;DHT22;8062;53.882;10.642;2023-04-24T02:42:35;10.80;99.90
15926;DHT22;8062;53.882;10.642;2023-04-24T02:43:55;10.80;99.90
15926;DHT22;8062;53.882;10.642;2023-04-24T02:45:15;10.80;99.90
15926;DHT22;8062;53.882;10.642;2023-04-24T02:46:35;10.70;99.90
15926;DHT22;8062;53.882;10.642;2023-04-24T02:47:55;10.70;99.90
15926;DHT22;8062;53.882;10.642;2023-04-24T02:49:14;10.70;99.90
15926;DHT22;8062;53.882;10.642;2023-04-24T02:50:34;10.70;99.90
15926;DHT22;8062;53.882;10.642;2023-04-24T02:51:54;10.70;99.90
15926;DHT22;8062;53.882;10.642;2023-04-24T02:53:13;10.60;99.90
15926;DHT22;8062;53.882;10.642;2023-04-24T02:54:33;10.60;99.90
15926;DHT22;8062;53.882;10.642;2023-04-24T02:55:52;10.50;99.90
15926;DHT22;8062;53.882;10.642;2023-04-24T02:57:12;10.50;99.90
15926;DHT22;8062;53.882;10.642;2023-04-24T02:58:34;10.50;99.90
15926;DHT22;8062;53.882;10.642;2023-04-24T02:59:54;10.60;99.90
15926;DHT22;8062;53.882;10.642;2023-04-24T03:01:14;10.50;99.90
15926;DHT22;8062;53.882;10.642;2023-04-24T03:02:33;10.60;99.90
15926;DHT22;8062;53.882;10.642;2023-04-24T03:03:53;10.50;99.90
15926;DHT22;8062;53.882;10.642;2023-04-24T03:05:13;10.50;99.90
15926;DHT22;8062;53.882;10.642;2023-04-24T03:06:32;10.50;99.90
15926;DHT22;8062;53.882;10.642;2023-04-24T03:07:51;10.60;99.90
15926;DHT22;8062;53.882;10.642;2023-04-24T03:09:12;10.50;99.90
15926;DHT22;8062;53.882;10.642;2023-04-24T03:10:31;10.50;99.90
15926;DHT22;8062;53.882;10.642;2023-04-24T03:11:54;10.50;99.90
15926;DHT22;8062;53.882;10.642;2023-04-24T03:13:16;10.50;99.90
15926;DHT22;8062;53.882;10.642;2023-04-24T03:14:35;10.40;99.90
15926;DHT22;8062;53.882;10.642;2023-04-24T03:15:55;10.40;99.90
15926;DHT22;8062;53.882;10.642;2023-04-24T03:17:14;10.40;99.90
15926;DHT22;8062;53.882;10.642;2023-04-24T03:18:34;10.30;99.90
15926;DHT22;8062;53.882;10.642;2023-04-24T03:19:53;10.30;99.90
15926;DHT22;8062;53.882;10.642;2023-04-24T03:21:13;10.30;99.90
15926;DHT22;8062;53.882;10.642;2023-04-24T03:22:34;10.20;99.90
15926;DHT22;8062;53.882;10.642;2023-04-24T03:23:55;10.20;99.90
15926;DHT22;8062;53.882;10.642;2023-04-24T03:25:14;10.10;99.90
15926;DHT22;8062;53.882;10.642;2023-04-24T03:26:34;10.10;99.90
15926;DHT22;8062;53.882;10.642;2023-04-24T03:28:08;10.20;99.90
15926;DHT22;8062;53.882;10.642;2023-04-24T03:29:37;10.10;99.90
15926;DHT22;8062;53.882;10.642;2023-04-24T03:30:57;10.20;99.90
15926;DHT22;8062;53.882;10.642;2023-04-24T03:32:17;10.10;99.90
15926;DHT22;8062;53.882;10.642;2023-04-24T03:33:37;10.10;99.90
15926;DHT22;8062;53.882;10.642;2023-04-24T03:34:56;10.10;99.90
15926;DHT22;8062;53.882;10.642;2023-04-24T03:36:16;10.10;99.90
15926;DHT22;8062;53.882;10.642;2023-04-24T03:37:36;10.00;99.90
15926;DHT22;8062;53.882;10.642;2023-04-24T03:39:15;10.00;99.90
15926;DHT22;8062;53.882;10.642;2023-04-24T03:40:42;10.10;99.90
15926;DHT22;8062;53.882;10.642;2023-04-24T03:42:16;10.10;99.90
15926;DHT22;8062;53.882;10.642;2023-04-24T03:43:43;10.00;99.90
15926;DHT22;8062;53.882;10.642;2023-04-24T03:45:03;10.00;99.90
15926;DHT22;8062;53.882;10.642;2023-04-24T03:46:27;9.90;99.90
15926;DHT22;8062;53.882;10.642;2023-04-24T03:47:51;9.90;99.90
15926;DHT22;8062;53.882;10.642;2023-04-24T03:49:10;10.00;99.90
15926;DHT22;8062;53.882;10.642;2023-04-24T03:50:34;9.90;99.90
15926;DHT22;8062;53.882;10.642;2023-04-24T03:51:55;9.90;99.90
15926;DHT22;8062;53.882;10.642;2023-04-24T03:53:16;9.90;99.90
15926;DHT22;8062;53.882;10.642;2023-04-24T03:54:36;9.80;99.90
15926;DHT22;8062;53.882;10.642;2023-04-24T03:55:56;9.80;99.90
15926;DHT22;8062;53.882;10.642;2023-04-24T03:57:17;9.80;99.90
15926;DHT22;8062;53.882;10.642;2023-04-24T03:58:47;9.80;99.90
15926;DHT22;8062;53.882;10.642;2023-04-24T04:00:07;9.80;99.90
15926;DHT22;8062;53.882;10.642;2023-04-24T04:01:34;9.90;99.90
15926;DHT22;8062;53.882;10.642;2023-04-24T04:03:01;9.80;99.90
15926;DHT22;8062;53.882;10.642;2023-04-24T04:04:20;9.80;99.90
15926;DHT22;8062;53.882;10.642;2023-04-24T04:05:40;9.90;99.90
15926;DHT22;8062;53.882;10.642;2023-04-24T04:07:00;9.80;99.90
15926;DHT22;8062;53.882;10.642;2023-04-24T04:08:22;9.80;99.90
15926;DHT22;8062;53.882;10.642;2023-04-24T04:09:41;9.80;99.90
15926;DHT22;8062;53.882;10.642;2023-04-24T04:11:01;9.70;99.90
15926;DHT22;8062;53.882;10.642;2023-04-24T04:12:21;9.80;99.90
15926;DHT22;8062;53.882;10.642;2023-04-24T04:13:41;9.80;99.90
15926;DHT22;8062;53.882;10.642;2023-04-24T04:15:03;9.80;99.90
15926;DHT22;8062;53.882;10.642;2023-04-24T04:16:23;9.80;99.90
15926;DHT22;8062;53.882;10.642;2023-04-24T04:17:48;9.80;99.90
15926;DHT22;8062;53.882;10.642;2023-04-24T04:19:07;9.80;99.90
15926;DHT22;8062;53.882;10.642;2023-04-24T04:20:27;9.80;99.90
15926;DHT22;8062;53.882;10.642;2023-04-24T04:21:47;9.80;99.90
15926;DHT22;8062;53.882;10.642;2023-04-24T04:23:19;9.80;99.90
15926;DHT22;8062;53.882;10.642;2023-04-24T04:24:57;9.90;99.90
15926;DHT22;8062;53.882;10.642;2023-04-24T04:26:17;9.90;99.90
15926;DHT22;8062;53.882;10.642;2023-04-24T04:27:58;9.90;99.90
15926;DHT22;8062;53.882;10.642;2023-04-24T04:29:18;9.90;99.90
15926;DHT22;8062;53.882;10.642;2023-04-24T04:30:42;9.80;99.90
15926;DHT22;8062;53.882;10.642;2023-04-24T04:32:02;9.80;99.90
15926;DHT22;8062;53.882;10.642;2023-04-24T04:33:22;9.90;99.90
15926;DHT22;8062;53.882;10.642;2023-04-24T04:34:41;9.80;99.90
15926;DHT22;8062;53.882;10.642;2023-04-24T04:36:04;9.90;99.90
15926;DHT22;8062;53.882;10.642;2023-04-24T04:37:25;9.90;99.90
15926;DHT22;8062;53.882;10.642;2023-04-24T04:39:09;9.80;99.90
15926;DHT22;8062;53.882;10.642;2023-04-24T04:40:38;9.90;99.90
15926;DHT22;8062;53.882;10.642;2023-04-24T04:41:59;9.80;99.90
15926;DHT22;8062;53.882;10.642;2023-04-24T04:43:24;9.90;99.90
15926;DHT22;8062;53.882;10.642;2023-04-24T04:44:46;9.90;99.90
15926;DHT22;8062;53.882;10.642;2023-04-24T04:46:11;9.90;99.90
15926;DHT22;8062;53.882;10.642;2023-04-24T04:48:03;9.90;99.90
15926;DHT22;8062;53.882;10.642;2023-04-24T04:49:23;9.90;99.90
15926;DHT22;8062;53.882;10.642;2023-04-24T04:50:44;9.90;99.90
15926;DHT22;8062;53.882;10.642;2023-04-24T04:52:03;9.90;99.90
15926;DHT22;8062;53.882;10.642;2023-04-24T04:53:24;9.80;99.90
15926;DHT22;8062;53.882;10.642;2023-04-24T04:54:44;9.90;99.90
15926;DHT22;8062;53.882;10.642;2023-04-24T04:56:05;9.90;99.90
15926;DHT22;8062;53.882;10.642;2023-04-24T04:57:30;9.80;99.90
15926;DHT22;8062;53.882;10.642;2023-04-24T04:58:50;9.90;99.90
15926;DHT22;8062;53.882;10.642;2023-04-24T05:00:11;9.90;99.90
15926;DHT22;8062;53.882;10.642;2023-04-24T05:01:39;9.90;99.90
15926;DHT22;8062;53.882;10.642;2023-04-24T05:03:01;9.90;99.90
15926;DHT22;8062;53.882;10.642;2023-04-24T05:04:20;9.90;99.90
15926;DHT22;8062;53.882;10.642;2023-04-24T05:05:40;10.00;99.90
15926;DHT22;8062;53.882;10.642;2023-04-24T05:07:03;10.00;99.90
15926;DHT22;8062;53.882;10.642;2023-04-24T05:08:25;10.00;99.90
15926;DHT22;8062;53.882;10.642;2023-04-24T05:09:45;10.00;99.90
15926;DHT22;8062;53.882;10.642;2023-04-24T05:11:05;10.10;99.90
15926;DHT22;8062;53.882;10.642;2023-04-24T05:12:25;10.10;99.90
15926;DHT22;8062;53.882;10.642;2023-04-24T05:13:47;10.10;99.90
15926;DHT22;8062;53.882;10.642;2023-04-24T05:15:11;10.20;99.90
15926;DHT22;8062;53.882;10.642;2023-04-24T05:16:31;10.30;99.90
15926;DHT22;8062;53.882;10.642;2023-04-24T05:17:50;10.30;99.90
15926;DHT22;8062;53.882;10.642;2023-04-24T05:19:10;10.40;99.90
15926;DHT22;8062;53.882;10.642;2023-04-24T05:20:33;10.40;99.90
15926;DHT22;8062;53.882;10.642;2023-04-24T05:21:53;10.50;99.90
15926;DHT22;8062;53.882;10.642;2023-04-24T05:23:13;10.50;99.90
15926;DHT22;8062;53.882;10.642;2023-04-24T05:24:35;10.60;99.90
15926;DHT22;8062;53.882;10.642;2023-04-24T05:26:05;10.70;99.90
15926;DHT22;8062;53.882;10.642;2023-04-24T05:27:25;10.70;99.90
15926;DHT22;8062;53.882;10.642;2023-04-24T05:28:45;10.80;99.90
15926;DHT22;8062;53.882;10.642;2023-04-24T05:30:06;10.80;99.90
15926;DHT22;8062;53.882;10.642;2023-04-24T05:31:25;10.90;99.90
15926;DHT22;8062;53.882;10.642;2023-04-24T05:32:45;10.90;99.90
15926;DHT22;8062;53.882;10.642;2023-04-24T05:34:06;11.00;99.90
15926;DHT22;8062;53.882;10.642;2023-04-24T05:35:26;11.10;99.90
15926;DHT22;8062;53.882;10.642;2023-04-24T05:36:46;11.10;99.90
15926;DHT22;8062;53.882;10.642;2023-04-24T05:38:05;11.20;99.90
15926;DHT22;8062;53.882;10.642;2023-04-24T05:39:25;11.30;99.90
15926;DHT22;8062;53.882;10.642;2023-04-24T05:40:45;11.30;99.90
15926;DHT22;8062;53.882;10.642;2023-04-24T05:42:05;11.40;99.90
15926;DHT22;8062;53.882;10.642;2023-04-24T05:43:25;11.50;99.90
15926;DHT22;8062;53.882;10.642;2023-04-24T05:44:44;11.50;99.90
15926;DHT22;8062;53.882;10.642;2023-04-24T05:46:04;11.50;99.90
15926;DHT22;8062;53.882;10.642;2023-04-24T05:47:24;11.60;99.90
15926;DHT22;8062;53.882;10.642;2023-04-24T05:48:45;11.70;99.90
15926;DHT22;8062;53.882;10.642;2023-04-24T05:50:05;11.60;99.90
15926;DHT22;8062;53.882;10.642;2023-04-24T05:51:25;11.60;99.90
15926;DHT22;8062;53.882;10.642;2023-04-24T05:52:45;11.60;99.90
15926;DHT22;8062;53.882;10.642;2023-04-24T05:54:16;11.60;99.90
15926;DHT22;8062;53.882;10.642;2023-04-24T05:55:36;11.60;99.90
15926;DHT22;8062;53.882;10.642;2023-04-24T05:56:56;11.60;99.90
15926;DHT22;8062;53.882;10.642;2023-04-24T05:58:26;11.60;99.90
15926;DHT22;8062;53.882;10.642;2023-04-24T05:59:46;11.60;99.90
15926;DHT22;8062;53.882;10.642;2023-04-24T06:01:06;11.60;99.90
15926;DHT22;8062;53.882;10.642;2023-04-24T06:02:26;11.70;99.90
15926;DHT22;8062;53.882;10.642;2023-04-24T06:03:48;11.70;99.90
15926;DHT22;8062;53.882;10.642;2023-04-24T06:05:08;11.80;99.90
15926;DHT22;8062;53.882;10.642;2023-04-24T06:06:27;11.90;99.90
15926;DHT22;8062;53.882;10.642;2023-04-24T06:07:48;12.00;99.90
15926;DHT22;8062;53.882;10.642;2023-04-24T06:09:08;12.20;99.90
15926;DHT22;8062;53.882;10.642;2023-04-24T06:10:27;12.30;99.90
15926;DHT22;8062;53.882;10.642;2023-04-24T06:11:47;12.30;99.90
15926;DHT22;8062;53.882;10.642;2023-04-24T06:13:08;12.50;99.90
15926;DHT22;8062;53.882;10.642;2023-04-24T06:14:30;12.60;99.90
15926;DHT22;8062;53.882;10.642;2023-04-24T06:16:12;12.80;99.90
15926;DHT22;8062;53.882;10.642;2023-04-24T06:17:34;13.00;99.90
15926;DHT22;8062;53.882;10.642;2023-04-24T06:18:53;13.10;99.90
15926;DHT22;8062;53.882;10.642;2023-04-24T06:20:13;13.30;99.90
15926;DHT22;8062;53.882;10.642;2023-04-24T06:21:33;13.40;99.90
15926;DHT22;8062;53.882;10.642;2023-04-24T06:22:53;13.40;99.90
15926;DHT22;8062;53.882;10.642;2023-04-24T06:24:14;13.50;99.90
15926;DHT22;8062;53.882;10.642;2023-04-24T06:25:34;13.40;99.90
15926;DHT22;8062;53.882;10.642;2023-04-24T06:26:53;13.50;99.90
15926;DHT22;8062;53.882;10.642;2023-04-24T06:28:13;13.70;99.90
15926;DHT22;8062;53.882;10.642;2023-04-24T06:29:33;13.70;99.90
15926;DHT22;8062;53.882;10.642;2023-04-24T06:30:53;13.80;99.90
15926;DHT22;8062;53.882;10.642;2023-04-24T06:32:13;14.00;99.90
15926;DHT22;8062;53.882;10.642;2023-04-24T06:33:32;14.10;99.90
15926;DHT22;8062;53.882;10.642;2023-04-24T06:34:52;14.30;99.90
15926;DHT22;8062;53.882;10.642;2023-04-24T06:36:12;14.50;99.90
15926;DHT22;8062;53.882;10.642;2023-04-24T06:37:32;14.70;99.90
15926;DHT22;8062;53.882;10.642;2023-04-24T06:38:51;15.00;99.90
15926;DHT22;8062;53.882;10.642;2023-04-24T06:40:11;15.00;99.90
15926;DHT22;8062;53.882;10.642;2023-04-24T06:41:31;15.00;99.90
15926;DHT22;8062;53.882;10.642;2023-04-24T06:42:50;15.00;99.90
15926;DHT22;8062;53.882;10.642;2023-04-24T06:44:10;15.20;99.90
15926;DHT22;8062;53.882;10.642;2023-04-24T06:45:29;15.30;99.90
15926;DHT22;8062;53.882;10.642;2023-04-24T06:46:49;15.40;99.90
15926;DHT22;8062;53.882;10.642;2023-04-24T06:48:08;15.70;99.90
15926;DHT22;8062;53.882;10.642;2023-04-24T06:49:28;15.90;99.90
15926;DHT22;8062;53.882;10.642;2023-04-24T06:50:48;16.20;98.90
15926;DHT22;8062;53.882;10.642;2023-04-24T06:52:08;16.30;98.90
15926;DHT22;8062;53.882;10.642;2023-04-24T06:53:27;16.70;98.90
15926;DHT22;8062;53.882;10.642;2023-04-24T06:54:47;16.80;98.20
15926;DHT22;8062;53.882;10.642;2023-04-24T06:56:07;17.10;98.10
15926;DHT22;8062;53.882;10.642;2023-04-24T06:57:26;17.50;97.30
15926;DHT22;8062;53.882;10.642;2023-04-24T06:58:46;18.10;96.70
15926;DHT22;8062;53.882;10.642;2023-04-24T07:00:06;18.20;95.90
15926;DHT22;8062;53.882;10.642;2023-04-24T07:01:26;18.30;95.50
15926;DHT22;8062;53.882;10.642;2023-04-24T07:02:46;18.30;94.30
15926;DHT22;8062;53.882;10.642;2023-04-24T07:04:06;18.40;94.40
15926;DHT22;8062;53.882;10.642;2023-04-24T07:05:26;18.70;94.20
15926;DHT22;8062;53.882;10.642;2023-04-24T07:06:46;18.90;94.50
15926;DHT22;8062;53.882;10.642;2023-04-24T07:08:05;19.00;93.40
15926;DHT22;8062;53.882;10.642;2023-04-24T07:09:26;19.00;93.80
15926;DHT22;8062;53.882;10.642;2023-04-24T07:10:46;19.20;93.10
15926;DHT22;8062;53.882;10.642;2023-04-24T07:12:05;19.20;92.50
15926;DHT22;8062;53.882;10.642;2023-04-24T07:13:25;18.90;92.60
15926;DHT22;8062;53.882;10.642;2023-04-24T07:14:45;18.70;93.40
15926;DHT22;8062;53.882;10.642;2023-04-24T07:16:05;18.60;93.60
15926;DHT22;8062;53.882;10.642;2023-04-24T07:17:25;18.40;93.50
15926;DHT22;8062;53.882;10.642;2023-04-24T07:18:44;18.50;94.40
15926;DHT22;8062;53.882;10.642;2023-04-24T07:20:05;18.50;93.80
15926;DHT22;8062;53.882;10.642;2023-04-24T07:21:26;18.20;93.10
15926;DHT22;8062;53.882;10.642;2023-04-24T07:22:46;18.20;95.60
15926;DHT22;8062;53.882;10.642;2023-04-24T07:24:07;18.10;93.30
15926;DHT22;8062;53.882;10.642;2023-04-24T07:25:30;18.10;94.10
15926;DHT22;8062;53.882;10.642;2023-04-24T07:26:52;18.10;93.60
15926;DHT22;8062;53.882;10.642;2023-04-24T07:28:12;17.70;94.70
15926;DHT22;8062;53.882;10.642;2023-04-24T07:29:31;17.40;94.50
15926;DHT22;8062;53.882;10.642;2023-04-24T07:30:51;17.00;94.70
15926;DHT22;8062;53.882;10.642;2023-04-24T07:32:13;17.10;95.50
15926;DHT22;8062;53.882;10.642;2023-04-24T07:33:32;17.20;96.10
15926;DHT22;8062;53.882;10.642;2023-04-24T07:34:52;17.70;96.60
15926;DHT22;8062;53.882;10.642;2023-04-24T07:36:11;17.80;95.10
15926;DHT22;8062;53.882;10.642;2023-04-24T07:37:34;17.90;94.00
15926;DHT22;8062;53.882;10.642;2023-04-24T07:38:54;17.90;96.00
15926;DHT22;8062;53.882;10.642;2023-04-24T07:40:14;18.10;96.60
15926;DHT22;8062;53.882;10.642;2023-04-24T07:41:34;17.90;94.50
15926;DHT22;8062;53.882;10.642;2023-04-24T07:42:54;17.90;95.90
15926;DHT22;8062;53.882;10.642;2023-04-24T07:44:13;18.10;95.20
15926;DHT22;8062;53.882;10.642;2023-04-24T07:45:33;17.70;94.30
15926;DHT22;8062;53.882;10.642;2023-04-24T07:46:56;17.70;94.80
15926;DHT22;8062;53.882;10.642;2023-04-24T07:48:16;17.70;95.60
15926;DHT22;8062;53.882;10.642;2023-04-24T07:49:36;17.60;96.40
15926;DHT22;8062;53.882;10.642;2023-04-24T07:50:56;17.50;94.90
15926;DHT22;8062;53.882;10.642;2023-04-24T07:52:15;17.30;95.10
15926;DHT22;8062;53.882;10.642;2023-04-24T07:53:35;17.10;95.50
15926;DHT22;8062;53.882;10.642;2023-04-24T07:54:55;17.20;96.00
15926;DHT22;8062;53.882;10.642;2023-04-24T07:56:17;17.20;96.80
15926;DHT22;8062;53.882;10.642;2023-04-24T07:57:37;17.10;94.90
15926;DHT22;8062;53.882;10.642;2023-04-24T07:58:57;16.90;96.40
15926;DHT22;8062;53.882;10.642;2023-04-24T08:00:16;16.80;95.80
15926;DHT22;8062;53.882;10.642;2023-04-24T08:01:36;16.70;95.60
15926;DHT22;8062;53.882;10.642;2023-04-24T08:02:56;16.80;96.10
15926;DHT22;8062;53.882;10.642;2023-04-24T08:04:15;17.10;95.50
15926;DHT22;8062;53.882;10.642;2023-04-24T08:05:35;17.20;96.50
15926;DHT22;8062;53.882;10.642;2023-04-24T08:06:54;17.20;96.20
15926;DHT22;8062;53.882;10.642;2023-04-24T08:08:14;17.10;95.20
15926;DHT22;8062;53.882;10.642;2023-04-24T08:09:34;17.10;95.70
15926;DHT22;8062;53.882;10.642;2023-04-24T08:10:53;16.80;95.80
15926;DHT22;8062;53.882;10.642;2023-04-24T08:12:13;16.90;96.80
15926;DHT22;8062;53.882;10.642;2023-04-24T08:13:33;16.80;96.90
15926;DHT22;8062;53.882;10.642;2023-04-24T08:14:53;16.90;96.80
15926;DHT22;8062;53.882;10.642;2023-04-24T08:16:12;16.90;97.30
15926;DHT22;8062;53.882;10.642;2023-04-24T08:17:34;16.70;95.50
15926;DHT22;8062;53.882;10.642;2023-04-24T08:18:54;16.80;96.80
15926;DHT22;8062;53.882;10.642;2023-04-24T08:20:14;17.00;95.80
15926;DHT22;8062;53.882;10.642;2023-04-24T08:21:33;16.80;94.80
15926;DHT22;8062;53.882;10.642;2023-04-24T08:22:53;16.90;96.20
15926;DHT22;8062;53.882;10.642;2023-04-24T08:24:14;17.00;96.20
15926;DHT22;8062;53.882;10.642;2023-04-24T08:25:34;17.10;96.60
15926;DHT22;8062;53.882;10.642;2023-04-24T08:26:54;17.20;96.70
15926;DHT22;8062;53.882;10.642;2023-04-24T08:28:16;17.50;96.20
15926;DHT22;8062;53.882;10.642;2023-04-24T08:29:39;17.40;95.20
15926;DHT22;8062;53.882;10.642;2023-04-24T08:30:58;17.50;94.00
15926;DHT22;8062;53.882;10.642;2023-04-24T08:32:18;17.50;95.80